Time;durP1;ratioP1;P1;durP2;ratioP2;P2;SDS_P1;SDS_P2;PMS_P1;PMS_P2;Temp;Humidity;BMP_temperature;BMP_pressure;BME280_temperature;BME280_humidity;BME280_pressure;Samples;Min_cycle;Max_cycle;Signal;HPM_P1;HPM_P2
2022/03/11 00:01:22;;;;;;;17.90;12.63;;;9.50;91.20;;;;;;5059207;28;20229;-79
2022/03/11 00:03:49;;;;;;;19.90;13.80;;;9.50;91.30;;;;;;5058801;28;20248;-80
2022/03/11 00:06:17;;;;;;;17.70;12.27;;;9.50;91.40;;;;;;5058861;28;20209;-80
2022/03/11 00:08:44;;;;;;;18.23;13.40;;;9.50;91.30;;;;;;5058649;28;20210;-83
2022/03/11 00:11:11;;;;;;;17.73;12.50;;;9.50;91.30;;;;;;5058690;28;20213;-80
2022/03/11 00:13:40;;;;;;;22.23;13.33;;;9.50;91.30;;;;;;5057067;28;20226;-79
2022/03/11 00:16:08;;;;;;;16.63;11.90;;;9.40;91.30;;;;;;5055019;28;20207;-78
2022/03/11 00:18:35;;;;;;;16.23;11.30;;;9.50;91.40;;;;;;5055848;28;20255;-78
2022/03/11 00:21:01;;;;;;;18.40;12.07;;;9.40;91.20;;;;;;5054407;28;20230;-79
2022/03/11 00:23:30;;;;;;;17.83;11.80;;;9.40;91.30;;;;;;5055556;28;20187;-80
2022/03/11 00:25:57;;;;;;;17.17;11.77;;;9.40;91.30;;;;;;5055263;28;20209;-78
2022/03/11 00:28:23;;;;;;;17.03;10.70;;;9.50;91.40;;;;;;5055258;28;20202;-81
2022/03/11 00:30:50;;;;;;;15.40;11.53;;;9.40;91.40;;;;;;5055220;28;20207;-81
2022/03/11 00:33:17;;;;;;;18.83;11.90;;;9.20;91.30;;;;;;5055373;28;20211;-81
2022/03/11 00:35:44;;;;;;;19.60;11.27;;;9.30;91.40;;;;;;5055131;28;20195;-79
2022/03/11 00:38:10;;;;;;;17.13;10.83;;;9.20;91.30;;;;;;5055147;28;20202;-78
2022/03/11 00:40:39;;;;;;;15.43;10.37;;;9.30;91.20;;;;;;5055025;28;20218;-79
2022/03/11 00:43:05;;;;;;;15.53;10.27;;;9.20;91.20;;;;;;5055281;28;20210;-78
2022/03/11 00:45:32;;;;;;;14.97;10.47;;;9.20;91.20;;;;;;5055356;28;20195;-77
2022/03/11 00:47:59;;;;;;;15.80;10.50;;;9.20;91.10;;;;;;5055013;28;20202;-77
2022/03/11 00:50:27;;;;;;;13.97;10.10;;;9.20;91.10;;;;;;5054490;28;20206;-79
2022/03/11 00:52:54;;;;;;;14.20;10.23;;;9.20;91.10;;;;;;5055030;28;20214;-78
2022/03/11 00:55:21;;;;;;;15.13;9.70;;;9.20;91.20;;;;;;5055514;28;20186;-77
2022/03/11 00:57:51;;;;;;;13.17;10.97;;;9.20;91.20;;;;;;5054224;28;20512;-78
2022/03/11 01:00:18;;;;;;;13.93;9.47;;;9.20;91.20;;;;;;5055097;28;20205;-78
2022/03/11 01:02:45;;;;;;;12.77;10.07;;;9.10;91.20;;;;;;5054737;28;20199;-78
2022/03/11 01:05:12;;;;;;;11.13;9.13;;;9.10;91.00;;;;;;5054482;28;20208;-79
2022/03/11 01:07:39;;;;;;;12.77;9.57;;;9.10;91.30;;;;;;5054506;28;20203;-77
2022/03/11 01:10:08;;;;;;;13.40;9.30;;;9.10;91.00;;;;;;5054631;28;20233;-79
2022/03/11 01:12:37;;;;;;;13.37;9.43;;;9.20;91.00;;;;;;5054594;28;20203;-81
2022/03/11 01:15:06;;;;;;;10.77;8.83;;;9.20;90.80;;;;;;5055002;28;20595;-78
2022/03/11 01:17:33;;;;;;;13.30;9.30;;;9.20;90.70;;;;;;5054766;28;20211;-79
2022/03/11 01:20:00;;;;;;;12.17;8.50;;;9.20;90.80;;;;;;5054580;28;20207;-78
2022/03/11 01:22:27;;;;;;;10.60;8.03;;;9.20;90.80;;;;;;5054499;28;20226;-78
2022/03/11 01:24:54;;;;;;;10.30;7.63;;;9.20;90.80;;;;;;5054563;28;20233;-79
2022/03/11 01:27:21;;;;;;;9.50;7.70;;;9.10;90.80;;;;;;5054714;28;20213;-79
2022/03/11 01:29:48;;;;;;;11.43;8.27;;;9.10;90.90;;;;;;5054714;28;20213;-79
2022/03/11 01:32:16;;;;;;;9.60;8.07;;;9.10;90.80;;;;;;5054703;28;20221;-79
2022/03/11 01:34:43;;;;;;;9.60;8.00;;;9.00;90.80;;;;;;5053907;28;20210;-81
2022/03/11 01:37:10;;;;;;;17.00;9.10;;;9.00;91.00;;;;;;5054067;28;20669;-79
2022/03/11 01:39:37;;;;;;;13.10;7.97;;;8.90;91.30;;;;;;5054104;28;20611;-78
2022/03/11 01:42:04;;;;;;;15.07;8.70;;;8.90;91.10;;;;;;5053759;28;20218;-79
2022/03/11 01:44:31;;;;;;;11.70;8.20;;;8.90;91.20;;;;;;5053906;28;20195;-78
2022/03/11 01:46:57;;;;;;;13.23;7.70;;;9.00;91.10;;;;;;5053750;28;20210;-80
2022/03/11 01:49:26;;;;;;;9.57;7.50;;;9.00;91.20;;;;;;5053271;28;20228;-79
2022/03/11 01:51:53;;;;;;;8.37;7.37;;;9.00;91.20;;;;;;5053815;28;20190;-77
2022/03/11 01:54:20;;;;;;;8.63;7.20;;;9.00;91.30;;;;;;5053299;28;20198;-78
2022/03/11 01:56:47;;;;;;;11.63;7.30;;;8.90;91.40;;;;;;5053428;28;20199;-78
2022/03/11 01:59:14;;;;;;;12.17;7.57;;;8.90;91.30;;;;;;5053533;28;20198;-79
2022/03/11 02:01:44;;;;;;;8.37;7.20;;;8.90;91.60;;;;;;5053540;28;20218;-78
2022/03/11 02:04:11;;;;;;;13.17;7.80;;;8.70;91.50;;;;;;5053366;28;20198;-77
2022/03/11 02:06:39;;;;;;;10.10;6.93;;;8.80;91.40;;;;;;5053543;28;20209;-78
2022/03/11 02:09:07;;;;;;;8.20;6.77;;;8.70;91.30;;;;;;5052977;28;20205;-79
2022/03/11 02:11:36;;;;;;;8.98;7.53;;;8.90;91.20;;;;;;5052632;28;20429;-77
2022/03/11 02:14:05;;;;;;;12.03;7.57;;;8.80;91.20;;;;;;5053296;28;20229;-78
2022/03/11 02:16:36;;;;;;;8.27;6.97;;;8.90;91.30;;;;;;5053501;28;20241;-79
2022/03/11 02:19:04;;;;;;;13.30;6.43;;;8.70;91.20;;;;;;5052634;28;20195;-79
2022/03/11 02:21:31;;;;;;;7.60;6.33;;;8.70;91.10;;;;;;5053142;28;20222;-78
2022/03/11 02:24:00;;;;;;;9.80;6.30;;;8.70;91.20;;;;;;5052769;28;20571;-77
2022/03/11 02:26:30;;;;;;;7.47;6.43;;;8.70;91.30;;;;;;5053003;28;20643;-78
2022/03/11 02:28:58;;;;;;;6.77;6.03;;;8.70;91.20;;;;;;5052633;28;20206;-78
2022/03/11 02:31:28;;;;;;;7.83;6.20;;;8.70;91.20;;;;;;5052602;28;20197;-79
2022/03/11 02:33:55;;;;;;;7.10;5.90;;;8.70;91.20;;;;;;5053117;28;20207;-79
2022/03/11 02:36:22;;;;;;;8.37;7.10;;;8.70;91.10;;;;;;5052165;28;20436;-78
2022/03/11 02:38:50;;;;;;;7.50;6.13;;;8.70;91.10;;;;;;5052318;28;20191;-77
2022/03/11 02:41:18;;;;;;;6.60;5.87;;;8.70;91.00;;;;;;5052493;28;20236;-78
2022/03/11 02:43:46;;;;;;;7.93;6.23;;;8.60;91.20;;;;;;5052986;28;20285;-78
2022/03/11 02:46:14;;;;;;;10.03;6.33;;;8.60;91.20;;;;;;5052234;28;20567;-77
2022/03/11 02:48:41;;;;;;;7.30;5.70;;;8.70;91.10;;;;;;5051573;28;20241;-78
2022/03/11 02:51:08;;;;;;;10.57;6.33;;;8.50;91.10;;;;;;5052720;28;20209;-79
2022/03/11 02:53:40;;;;;;;9.07;5.90;;;8.60;91.00;;;;;;5052749;28;20214;-80
2022/03/11 02:56:07;;;;;;;8.60;6.57;;;8.60;91.00;;;;;;5052630;28;20213;-80
2022/03/11 02:58:36;;;;;;;6.77;6.07;;;8.60;90.90;;;;;;5052405;28;20641;-79
2022/03/11 03:01:03;;;;;;;8.97;5.80;;;8.50;91.00;;;;;;5052516;28;20217;-79
2022/03/11 03:03:30;;;;;;;6.17;5.57;;;8.50;91.00;;;;;;5052818;28;20657;-78
2022/03/11 03:05:57;;;;;;;6.30;5.70;;;8.60;90.90;;;;;;5052691;28;20210;-78
2022/03/11 03:08:24;;;;;;;7.00;6.30;;;8.60;90.80;;;;;;5052438;28;20206;-78
2022/03/11 03:10:51;;;;;;;8.40;6.20;;;8.60;90.80;;;;;;5052072;28;20210;-77
2022/03/11 03:13:18;;;;;;;7.23;6.20;;;8.60;90.80;;;;;;5052654;28;20232;-79
2022/03/11 03:15:48;;;;;;;6.80;6.07;;;8.50;90.80;;;;;;5051916;28;20665;-78
2022/03/11 03:18:15;;;;;;;9.47;6.07;;;8.60;90.80;;;;;;5052208;28;20210;-78
2022/03/11 03:20:42;;;;;;;6.27;5.67;;;8.50;90.80;;;;;;5052236;28;20289;-82
2022/03/11 03:23:09;;;;;;;8.73;5.80;;;8.50;90.80;;;;;;5052282;28;20214;-78
2022/03/11 03:25:36;;;;;;;7.55;6.80;;;8.50;90.80;;;;;;5051961;28;20444;-79
2022/03/11 03:28:03;;;;;;;7.03;6.33;;;8.50;90.70;;;;;;5051464;28;20201;-79
2022/03/11 03:30:30;;;;;;;7.20;5.63;;;8.50;90.90;;;;;;5052145;28;20217;-79
2022/03/11 03:32:58;;;;;;;9.47;6.03;;;8.50;91.20;;;;;;5052695;28;20206;-78
2022/03/11 03:35:25;;;;;;;7.30;6.20;;;8.50;90.70;;;;;;5052626;28;20191;-78
2022/03/11 03:37:52;;;;;;;9.03;6.43;;;8.40;91.00;;;;;;5052298;28;20630;-78
2022/03/11 03:40:19;;;;;;;10.90;6.50;;;8.50;91.00;;;;;;5052043;28;20228;-80
2022/03/11 03:42:48;;;;;;;7.27;6.30;;;8.30;90.80;;;;;;5052837;28;20222;-79
2022/03/11 03:45:15;;;;;;;8.87;6.40;;;8.40;90.90;;;;;;5052327;28;20191;-79
2022/03/11 03:47:41;;;;;;;7.90;6.20;;;8.40;90.80;;;;;;5052573;28;20210;-79
2022/03/11 03:50:11;;;;;;;9.77;7.43;;;8.40;90.70;;;;;;5054070;28;20880;-78
2022/03/11 03:52:38;;;;;;;8.07;6.13;;;8.40;91.10;;;;;;5056526;28;20481;-81
2022/03/11 03:55:06;;;;;;;7.77;6.13;;;8.30;90.70;;;;;;5055744;28;20225;-80
2022/03/11 03:57:33;;;;;;;8.50;6.23;;;8.30;90.90;;;;;;5056037;28;20203;-80
2022/03/11 04:00:00;;;;;;;9.13;6.07;;;8.30;91.00;;;;;;5055435;28;20198;-78
2022/03/11 04:02:27;;;;;;;12.03;6.07;;;8.30;90.80;;;;;;5055590;28;20234;-80
2022/03/11 04:04:53;;;;;;;6.50;5.80;;;8.30;90.80;;;;;;5056255;28;20202;-78
2022/03/11 04:07:22;;;;;;;7.10;6.40;;;8.30;90.80;;;;;;5055913;28;20195;-78
2022/03/11 04:09:48;;;;;;;10.37;6.87;;;8.30;90.70;;;;;;5055700;28;20190;-79
2022/03/11 04:12:15;;;;;;;10.13;6.40;;;8.30;90.80;;;;;;5055613;28;20198;-79
2022/03/11 04:14:42;;;;;;;9.85;6.70;;;8.30;91.10;;;;;;5055416;28;20423;-80
2022/03/11 04:17:09;;;;;;;7.83;6.37;;;8.20;91.30;;;;;;5057845;28;20661;-79
2022/03/11 04:19:36;;;;;;;8.97;6.37;;;8.30;91.40;;;;;;5059263;28;20668;-80
2022/03/11 04:22:03;;;;;;;7.77;6.30;;;8.30;91.30;;;;;;5055494;28;20225;-79
2022/03/11 04:24:32;;;;;;;7.07;6.37;;;8.20;91.30;;;;;;5056043;28;20210;-79
2022/03/11 04:26:58;;;;;;;10.97;6.07;;;8.10;91.10;;;;;;5055561;28;20510;-77
2022/03/11 04:29:26;;;;;;;10.50;6.47;;;8.10;91.30;;;;;;5056344;28;20214;-79
2022/03/11 04:31:54;;;;;;;9.23;6.43;;;8.10;91.40;;;;;;5061303;28;20209;-79
2022/03/11 04:34:22;;;;;;;7.87;6.03;;;8.10;91.40;;;;;;5060799;28;20202;-79
2022/03/11 04:36:49;;;;;;;8.07;6.27;;;8.10;91.40;;;;;;5060559;28;20198;-77
2022/03/11 04:39:21;;;;;;;8.25;6.50;;;8.00;91.60;;;;;;5060114;28;20433;-79
2022/03/11 04:41:53;;;;;;;8.77;6.40;;;8.00;91.70;;;;;;5060795;28;20224;-77
2022/03/11 04:44:25;;;;;;;9.57;6.73;;;7.90;91.70;;;;;;5061637;28;20234;-80
2022/03/11 04:46:52;;;;;;;6.80;5.97;;;7.90;91.70;;;;;;5061408;28;20206;-79
2022/03/11 04:49:19;;;;;;;8.20;6.27;;;7.90;91.80;;;;;;5077783;28;20236;-78
2022/03/11 04:51:48;;;;;;;8.07;6.17;;;8.00;91.90;;;;;;5079010;28;20673;-78
2022/03/11 04:54:18;;;;;;;7.33;6.07;;;8.00;92.00;;;;;;5079964;28;20574;-78
2022/03/11 04:56:47;;;;;;;8.90;6.20;;;8.00;92.00;;;;;;5080936;28;20297;-78
2022/03/11 04:59:15;;;;;;;9.23;5.87;;;7.90;92.00;;;;;;5079887;28;20198;-78
2022/03/11 05:01:42;;;;;;;12.07;6.73;;;8.00;92.10;;;;;;5082219;28;20232;-79
2022/03/11 05:04:13;;;;;;;11.15;6.85;;;8.00;92.20;;;;;;5080358;28;20447;-80
2022/03/11 05:06:40;;;;;;;10.60;6.80;;;7.90;92.20;;;;;;5082754;28;20637;-78
2022/03/11 05:09:10;;;;;;;10.43;6.17;;;7.90;92.20;;;;;;5081005;28;20212;-79
2022/03/11 05:11:37;;;;;;;13.90;7.33;;;8.00;92.30;;;;;;5081715;28;20297;-77
2022/03/11 05:14:05;;;;;;;11.47;7.20;;;8.00;92.20;;;;;;5081127;28;20225;-78
2022/03/11 05:16:33;;;;;;;9.80;6.60;;;8.00;92.40;;;;;;5081848;28;20523;-77
2022/03/11 05:19:00;;;;;;;8.50;6.80;;;7.90;92.40;;;;;;5086408;28;20208;-77
2022/03/11 05:21:27;;;;;;;9.30;6.87;;;7.80;92.60;;;;;;5086052;28;20263;-80
2022/03/11 05:23:54;;;;;;;9.17;6.97;;;7.80;92.70;;;;;;5086103;28;20517;-80
2022/03/11 05:26:28;;;;;;;9.83;6.93;;;7.80;92.90;;;;;;5081908;28;20205;-79
2022/03/11 05:29:00;;;;;;;11.43;6.93;;;7.70;92.90;;;;;;5082486;28;20198;-78
2022/03/11 05:31:28;;;;;;;13.07;6.93;;;7.80;93.00;;;;;;5081369;28;20196;-78
2022/03/11 05:33:58;;;;;;;11.87;7.27;;;7.80;93.10;;;;;;5081811;28;20202;-79
2022/03/11 05:36:26;;;;;;;9.23;6.80;;;7.70;93.10;;;;;;5082138;28;20208;-78
2022/03/11 05:38:55;;;;;;;9.90;7.20;;;7.60;93.20;;;;;;5082341;28;20206;-77
2022/03/11 05:41:22;;;;;;;13.03;6.53;;;7.60;93.30;;;;;;5081903;28;20206;-77
2022/03/11 05:43:51;;;;;;;13.40;7.20;;;7.60;93.40;;;;;;5082713;28;20229;-77
2022/03/11 05:46:18;;;;;;;9.43;7.07;;;7.60;93.70;;;;;;5083010;28;20198;-82
2022/03/11 05:48:48;;;;;;;9.17;7.23;;;7.50;93.80;;;;;;5082145;28;20198;-80
2022/03/11 05:51:16;;;;;;;11.57;7.40;;;7.50;93.90;;;;;;5081789;28;20202;-81
2022/03/11 05:53:43;;;;;;;12.20;7.50;;;7.60;94.00;;;;;;5078973;28;20416;-78
2022/03/11 05:56:10;;;;;;;12.20;7.80;;;7.50;94.10;;;;;;5079192;28;20224;-79
2022/03/11 05:58:37;;;;;;;9.43;7.23;;;7.60;94.00;;;;;;5078900;28;20202;-83
2022/03/11 06:01:04;;;;;;;11.47;7.73;;;7.60;94.20;;;;;;5074207;28;20198;-79
2022/03/11 06:03:31;;;;;;;11.90;6.93;;;7.50;94.40;;;;;;5066772;28;20255;-80
2022/03/11 06:05:58;;;;;;;8.63;7.17;;;7.50;94.60;;;;;;5041123;28;20202;-77
2022/03/11 06:08:26;;;;;;;14.87;7.57;;;7.60;94.70;;;;;;5058454;28;20202;-80
2022/03/11 06:10:53;;;;;;;11.20;7.73;;;7.40;94.80;;;;;;5057787;28;20652;-79
2022/03/11 06:13:20;;;;;;;9.87;6.93;;;7.30;94.90;;;;;;5058372;28;20233;-80
2022/03/11 06:15:47;;;;;;;12.63;7.73;;;7.30;95.10;;;;;;5059197;28;20634;-80
2022/03/11 06:18:17;;;;;;;11.40;7.80;;;7.40;95.20;;;;;;5059203;28;20206;-80
2022/03/11 06:20:47;;;;;;;10.27;7.50;;;7.50;95.10;;;;;;5057290;28;20298;-80
2022/03/11 06:23:14;;;;;;;10.93;8.00;;;7.50;95.30;;;;;;5057786;28;20221;-81
2022/03/11 06:25:43;;;;;;;8.77;6.77;;;7.40;95.40;;;;;;5061456;28;20202;-82
2022/03/11 06:28:10;;;;;;;13.80;8.07;;;7.50;95.50;;;;;;5062378;28;20197;-81
2022/03/11 06:30:37;;;;;;;9.30;7.93;;;7.50;95.50;;;;;;5039686;28;20197;-79
2022/03/11 06:33:04;;;;;;;14.00;7.43;;;7.50;95.60;;;;;;5057020;28;20658;-80
2022/03/11 06:35:31;;;;;;;9.00;7.40;;;7.60;95.50;;;;;;5055396;28;20558;-76
2022/03/11 06:37:58;;;;;;;9.93;7.30;;;7.60;95.50;;;;;;5038655;28;20568;-79
2022/03/11 06:40:25;;;;;;;9.70;6.97;;;7.50;96.00;;;;;;5056133;28;20634;-77
2022/03/11 06:42:54;;;;;;;9.67;7.97;;;7.50;95.90;;;;;;5056580;28;20229;-79
2022/03/11 06:45:22;;;;;;;12.18;9.43;;;7.70;95.90;;;;;;5056131;28;20471;-77
2022/03/11 06:47:49;;;;;;;14.90;9.00;;;7.80;96.10;;;;;;5056777;28;20213;-81
2022/03/11 06:50:17;;;;;;;13.37;8.37;;;7.80;96.00;;;;;;5056569;28;20574;-78
2022/03/11 06:52:46;;;;;;;11.67;8.40;;;7.80;96.10;;;;;;5056088;28;20222;-77
2022/03/11 06:55:13;;;;;;;10.67;8.20;;;7.80;96.20;;;;;;5057005;28;20194;-81
2022/03/11 06:57:40;;;;;;;11.93;8.73;;;7.80;96.30;;;;;;5055907;28;20661;-82
2022/03/11 07:00:10;;;;;;;14.87;8.17;;;7.80;96.40;;;;;;5056557;28;20210;-82
2022/03/11 07:02:37;;;;;;;16.63;8.63;;;7.70;96.80;;;;;;5056001;28;20230;-80
2022/03/11 07:05:04;;;;;;;11.27;8.30;;;7.90;96.70;;;;;;5055948;28;20277;-83
2022/03/11 07:07:33;;;;;;;13.67;8.60;;;8.00;96.70;;;;;;5055842;28;20202;-78
2022/03/11 07:10:00;;;;;;;12.17;8.10;;;7.90;96.90;;;;;;5057430;28;20275;-80
2022/03/11 07:12:27;;;;;;;17.27;8.23;;;8.00;97.00;;;;;;5056556;28;20183;-80
2022/03/11 07:14:54;;;;;;;15.80;8.97;;;8.10;97.10;;;;;;5058610;28;20226;-78
2022/03/11 07:17:22;;;;;;;14.37;8.27;;;8.00;97.20;;;;;;5055599;28;20207;-78
2022/03/11 07:19:49;;;;;;;14.07;8.87;;;8.10;97.70;;;;;;5055897;28;20202;-80
2022/03/11 07:22:16;;;;;;;11.87;8.53;;;8.10;97.40;;;;;;5054731;28;20207;-77
2022/03/11 07:24:44;;;;;;;12.67;8.73;;;8.20;97.50;;;;;;5058742;28;20190;-80
2022/03/11 07:27:11;;;;;;;12.03;7.73;;;8.30;97.90;;;;;;5058090;28;20575;-80
2022/03/11 07:29:41;;;;;;;13.57;8.77;;;8.40;97.90;;;;;;5059831;28;20636;-80
2022/03/11 07:32:09;;;;;;;11.37;7.93;;;8.40;98.00;;;;;;5059989;28;20206;-82
2022/03/11 07:34:38;;;;;;;13.05;10.10;;;8.50;98.10;;;;;;5058629;28;20902;-84
2022/03/11 07:37:06;;;;;;;11.60;8.27;;;8.60;98.30;;;;;;5071289;28;20205;-81
2022/03/11 07:39:33;;;;;;;15.07;9.50;;;8.80;98.20;;;;;;5080159;28;20654;-80
2022/03/11 07:42:01;;;;;;;14.60;8.83;;;8.80;98.40;;;;;;5082294;28;20233;-77
2022/03/11 07:44:27;;;;;;;13.13;8.67;;;8.90;98.60;;;;;;5082960;28;20229;-81
2022/03/11 07:46:55;;;;;;;15.73;9.37;;;8.90;98.60;;;;;;5082976;28;20213;-80
2022/03/11 07:49:28;;;;;;;17.00;8.97;;;8.90;98.60;;;;;;5083870;28;20205;-83
2022/03/11 07:51:56;;;;;;;12.40;8.50;;;9.00;98.90;;;;;;5085495;28;20226;-79
2022/03/11 07:54:23;;;;;;;13.27;8.97;;;9.00;99.00;;;;;;5084516;28;20214;-78
2022/03/11 07:56:51;;;;;;;12.00;8.70;;;9.10;99.10;;;;;;5085753;28;20205;-79
2022/03/11 07:59:18;;;;;;;19.77;8.93;;;9.20;99.30;;;;;;5085187;28;20202;-80
2022/03/11 08:01:46;;;;;;;13.73;8.40;;;9.20;99.40;;;;;;5085475;28;20237;-78
2022/03/11 08:04:16;;;;;;;18.53;8.73;;;9.40;99.40;;;;;;5083922;28;20231;-78
2022/03/11 08:06:45;;;;;;;11.53;8.57;;;9.50;99.60;;;;;;5084836;28;20708;-78
2022/03/11 08:09:14;;;;;;;12.57;8.33;;;9.60;99.80;;;;;;5084912;28;20655;-79
2022/03/11 08:11:48;;;;;;;13.60;9.03;;;9.70;99.90;;;;;;5083758;28;20209;-80
2022/03/11 08:14:15;;;;;;;11.63;8.27;;;9.80;99.90;;;;;;5085204;28;20695;-86
2022/03/11 08:16:42;;;;;;;13.00;9.23;;;9.80;99.90;;;;;;5083806;28;20192;-83
2022/03/11 08:19:09;;;;;;;12.03;8.47;;;9.80;99.90;;;;;;5084875;28;20267;-79
2022/03/11 08:21:36;;;;;;;15.60;8.67;;;10.00;99.90;;;;;;5081022;28;20201;-81
2022/03/11 08:24:04;;;;;;;14.80;10.03;;;10.00;99.90;;;;;;5080343;28;20451;-78
2022/03/11 08:26:38;;;;;;;11.07;9.07;;;10.30;99.90;;;;;;5077388;28;20446;-90
2022/03/11 08:29:05;;;;;;;22.20;8.23;;;10.50;99.90;;;;;;5079848;28;20212;-78
2022/03/11 08:31:33;;;;;;;9.83;8.03;;;10.50;99.90;;;;;;5081680;28;20209;-75
2022/03/11 08:34:03;;;;;;;19.07;8.37;;;10.60;99.90;;;;;;5079154;28;20201;-80
2022/03/11 08:36:31;;;;;;;14.10;8.93;;;10.60;99.90;;;;;;5079729;28;20190;-83
2022/03/11 08:38:57;;;;;;;13.57;8.33;;;10.70;99.90;;;;;;5083737;28;20197;-80
2022/03/11 08:41:25;;;;;;;14.40;8.27;;;10.70;99.90;;;;;;5079339;28;20198;-78
2022/03/11 08:43:54;;;;;;;13.00;8.50;;;10.80;99.90;;;;;;5079618;28;20233;-79
2022/03/11 08:46:21;;;;;;;11.03;8.53;;;10.80;99.90;;;;;;5080949;28;20220;-78
2022/03/11 08:48:48;;;;;;;9.53;8.23;;;10.90;99.90;;;;;;5077318;28;20649;-82
2022/03/11 08:51:16;;;;;;;10.70;8.40;;;11.00;99.90;;;;;;5078108;28;20190;-80
2022/03/11 08:53:43;;;;;;;21.13;9.80;;;11.10;99.90;;;;;;5077633;28;20209;-78
2022/03/11 08:56:09;;;;;;;11.47;8.83;;;11.20;99.90;;;;;;5080639;28;20224;-80
2022/03/11 08:58:38;;;;;;;11.57;8.20;;;11.20;99.90;;;;;;5077517;28;20202;-78
2022/03/11 09:01:09;;;;;;;11.13;8.30;;;11.40;99.90;;;;;;5079926;28;20204;-82
2022/03/11 09:03:36;;;;;;;12.70;8.80;;;11.30;99.90;;;;;;5078475;28;20282;-82
2022/03/11 09:06:03;;;;;;;14.03;8.33;;;11.30;99.90;;;;;;5078034;28;20227;-81
2022/03/11 09:08:31;;;;;;;14.27;8.90;;;11.40;99.90;;;;;;5081251;28;20197;-87
2022/03/11 09:10:58;;;;;;;10.97;7.87;;;11.60;99.90;;;;;;5084052;28;20200;-83
2022/03/11 09:13:25;;;;;;;13.67;8.37;;;11.60;99.90;;;;;;5077094;28;20218;-86
2022/03/11 09:15:51;;;;;;;16.10;9.07;;;11.70;99.90;;;;;;5075731;28;20553;-85
2022/03/11 09:18:20;;;;;;;17.57;8.63;;;11.70;99.90;;;;;;5075073;28;20637;-82
2022/03/11 09:20:47;;;;;;;12.90;8.57;;;11.70;99.90;;;;;;5075767;28;20205;-89
2022/03/11 09:23:15;;;;;;;8.87;7.93;;;11.70;99.90;;;;;;5068583;28;20267;-79
2022/03/11 09:25:42;;;;;;;11.73;8.30;;;11.80;99.90;;;;;;5074957;28;20198;-80
2022/03/11 09:28:10;;;;;;;9.13;7.73;;;11.90;99.90;;;;;;5074447;28;20204;-79
2022/03/11 09:30:39;;;;;;;11.90;8.63;;;11.90;99.90;;;;;;5075324;28;20225;-82
2022/03/11 09:33:08;;;;;;;11.53;8.20;;;12.00;99.90;;;;;;5079626;28;20198;-89
2022/03/11 09:35:36;;;;;;;12.03;7.87;;;12.20;99.90;;;;;;5084022;28;20194;-87
2022/03/11 09:38:21;;;;;;;11.70;9.45;;;12.20;99.90;;;;;;5085595;28;20438;-82
2022/03/11 09:40:51;;;;;;;10.10;8.60;;;12.40;99.90;;;;;;5091751;28;20208;-82
2022/03/11 09:43:19;;;;;;;13.03;8.60;;;12.40;99.90;;;;;;5087809;28;20226;-78
2022/03/11 09:45:49;;;;;;;10.33;8.17;;;12.50;99.90;;;;;;5089313;28;20201;-80
2022/03/11 09:48:19;;;;;;;10.97;8.63;;;12.60;99.90;;;;;;5085969;28;20200;-78
2022/03/11 09:50:48;;;;;;;10.77;8.27;;;12.60;99.90;;;;;;5089087;28;20221;-84
2022/03/11 09:53:15;;;;;;;11.80;8.23;;;12.70;99.90;;;;;;5105365;28;20209;-89
2022/03/11 09:55:43;;;;;;;13.87;8.20;;;12.80;99.90;;;;;;5099508;28;20510;-80
2022/03/11 09:58:10;;;;;;;13.07;8.90;;;12.90;99.90;;;;;;5098735;28;20190;-88
2022/03/11 10:00:37;;;;;;;13.00;8.73;;;12.90;99.90;;;;;;5100947;28;20211;-82
2022/03/11 10:03:04;;;;;;;13.77;9.73;;;12.90;99.90;;;;;;5096509;28;20530;-80
2022/03/11 10:05:50;;;;;;;10.00;8.57;;;13.00;99.90;;;;;;5098580;28;20231;-90
2022/03/11 10:08:32;;;;;;;10.47;8.60;;;13.00;99.90;;;;;;5099717;28;20217;-83
2022/03/11 10:11:20;;;;;;;9.50;8.20;;;13.00;99.90;;;;;;5099612;28;20203;-81
2022/03/11 10:13:47;;;;;;;12.87;7.77;;;13.20;99.90;;;;;;5097267;28;20227;-87
2022/03/11 10:16:22;;;;;;;12.80;8.47;;;13.30;99.90;;;;;;5096228;28;20643;-77
2022/03/11 10:19:02;;;;;;;12.20;8.20;;;13.40;99.90;;;;;;5097012;28;20207;-80
2022/03/11 10:21:32;;;;;;;8.47;7.57;;;13.40;99.90;;;;;;5098784;28;20212;-82
2022/03/11 10:24:01;;;;;;;11.30;8.20;;;13.50;99.90;;;;;;5097715;28;20227;-84
2022/03/11 10:26:33;;;;;;;9.87;7.43;;;13.50;99.90;;;;;;5096611;28;20211;-89
2022/03/11 10:29:01;;;;;;;10.97;8.07;;;13.70;99.90;;;;;;5097274;28;20204;-78
2022/03/11 10:31:32;;;;;;;9.07;8.03;;;13.70;99.90;;;;;;5096657;28;20203;-78
2022/03/11 10:34:19;;;;;;;10.23;7.90;;;13.70;99.90;;;;;;5097451;28;20207;-85
2022/03/11 10:36:54;;;;;;;8.53;7.60;;;13.90;99.90;;;;;;5098673;28;20200;-80
2022/03/11 10:39:25;;;;;;;12.23;7.87;;;13.90;99.90;;;;;;5097630;28;20211;-82
2022/03/11 10:41:53;;;;;;;10.53;7.13;;;14.00;99.90;;;;;;5098969;28;20250;-92
2022/03/11 10:44:23;;;;;;;8.40;7.30;;;14.00;99.90;;;;;;5099009;28;20216;-78
2022/03/11 10:46:50;;;;;;;9.93;7.70;;;14.00;99.90;;;;;;5098295;28;20247;-78
2022/03/11 10:49:32;;;;;;;10.10;7.73;;;14.00;99.90;;;;;;5081014;28;20214;-86
2022/03/11 10:52:02;;;;;;;10.48;8.38;;;14.00;99.90;;;;;;5056477;28;20433;-78
2022/03/11 10:54:30;;;;;;;8.67;7.67;;;14.10;99.90;;;;;;5055518;28;20252;-78
2022/03/11 10:57:09;;;;;;;9.87;7.23;;;14.20;99.90;;;;;;5054542;28;20198;-81
2022/03/11 10:59:38;;;;;;;10.43;7.13;;;14.30;99.90;;;;;;5052816;28;20194;-81
2022/03/11 11:02:05;;;;;;;8.43;7.07;;;14.40;99.90;;;;;;5053028;28;20699;-84
2022/03/11 11:04:33;;;;;;;7.53;6.83;;;14.50;99.90;;;;;;5053554;28;20218;-81
2022/03/11 11:07:02;;;;;;;10.17;7.37;;;14.50;99.90;;;;;;5053403;28;20190;-86
2022/03/11 11:09:30;;;;;;;7.50;6.23;;;14.50;99.90;;;;;;5053495;28;20229;-83
2022/03/11 11:11:58;;;;;;;8.87;7.13;;;14.60;99.90;;;;;;5053586;28;20234;-86
2022/03/11 11:14:27;;;;;;;8.23;6.97;;;14.60;99.90;;;;;;5053337;28;20230;-81
2022/03/11 11:16:57;;;;;;;7.30;6.50;;;14.70;99.90;;;;;;5054385;28;20243;-83
2022/03/11 11:19:25;;;;;;;7.10;6.43;;;14.80;99.90;;;;;;5072659;28;20323;-80
2022/03/11 11:21:53;;;;;;;6.53;5.93;;;14.90;99.90;;;;;;5074821;28;20656;-84
2022/03/11 11:24:28;;;;;;;12.27;6.17;;;14.90;99.90;;;;;;5075146;28;20636;-88
2022/03/11 11:26:56;;;;;;;5.20;4.67;;;15.00;99.90;;;;;;5073560;28;20197;-87
2022/03/11 11:29:29;;;;;;;5.93;4.30;;;15.10;99.90;;;;;;5073562;28;20197;-84
2022/03/11 11:31:58;;;;;;;4.70;4.30;;;15.10;99.90;;;;;;5073348;28;20266;-85
2022/03/11 11:34:30;;;;;;;6.97;4.73;;;15.20;99.90;;;;;;5073420;28;20785;-83
2022/03/11 11:36:58;;;;;;;5.23;4.73;;;15.30;99.90;;;;;;5073505;28;20209;-86
2022/03/11 11:39:36;;;;;;;6.13;5.00;;;15.30;99.90;;;;;;5073449;28;20194;-89
2022/03/11 11:42:09;;;;;;;4.63;4.27;;;15.40;99.90;;;;;;5074420;28;20236;-78
2022/03/11 11:44:37;;;;;;;5.90;3.77;;;15.40;99.90;;;;;;5073952;28;20237;-84
2022/03/11 11:47:10;;;;;;;4.57;4.20;;;15.40;99.90;;;;;;5074053;28;20289;-80
2022/03/11 11:49:45;;;;;;;6.30;3.97;;;15.50;99.90;;;;;;5070917;28;20697;-77
2022/03/11 11:52:25;;;;;;;5.30;4.57;;;15.50;99.90;;;;;;5065420;28;20266;-87
2022/03/11 11:55:11;;;;;;;4.37;3.93;;;15.50;99.90;;;;;;5070989;28;20209;-84
2022/03/11 11:57:42;;;;;;;10.73;4.17;;;15.60;99.90;;;;;;5073184;28;20192;-91
2022/03/11 12:00:34;;;;;;;6.97;4.30;;;15.70;99.90;;;;;;5069500;28;20689;-88
2022/03/11 12:03:03;;;;;;;4.70;4.27;;;15.70;99.90;;;;;;5073492;28;20204;-81
2022/03/11 12:05:45;;;;;;;4.63;4.23;;;15.70;99.90;;;;;;5071151;28;20238;-84
2022/03/11 12:08:27;;;;;;;4.43;4.03;;;15.90;99.90;;;;;;5070878;28;20198;-77
2022/03/11 12:10:57;;;;;;;4.77;4.07;;;16.00;99.90;;;;;;5073710;28;20229;-85
2022/03/11 12:13:35;;;;;;;6.37;3.60;;;16.10;99.90;;;;;;5074662;28;20224;-83
2022/03/11 12:16:04;;;;;;;4.50;4.10;;;16.30;99.90;;;;;;5057117;28;20250;-76
2022/03/11 12:18:44;;;;;;;6.87;3.80;;;16.40;99.90;;;;;;5072285;28;20283;-77
2022/03/11 12:21:25;;;;;;;5.70;3.97;;;16.50;99.90;;;;;;5076991;28;20200;-88
2022/03/11 12:23:52;;;;;;;3.97;3.63;;;16.60;99.90;;;;;;5076647;28;20289;-77
2022/03/11 12:26:19;;;;;;;6.13;4.30;;;16.60;99.90;;;;;;5075193;28;20214;-80
2022/03/11 12:28:48;;;;;;;4.80;4.40;;;16.60;99.90;;;;;;5071617;28;20667;-86
2022/03/11 12:31:24;;;;;;;5.28;4.78;;;16.50;99.90;;;;;;5071599;28;20486;-81
2022/03/11 12:33:52;;;;;;;6.03;4.30;;;16.60;99.90;;;;;;5076081;28;20256;-87
2022/03/11 12:36:22;;;;;;;4.83;4.10;;;16.70;99.90;;;;;;5076871;28;20215;-77
2022/03/11 12:38:52;;;;;;;4.47;3.83;;;16.80;99.90;;;;;;5076353;28;20214;-78
2022/03/11 12:41:27;;;;;;;4.47;3.67;;;16.90;99.90;;;;;;5075217;28;20549;-77
2022/03/11 12:43:58;;;;;;;7.30;4.13;;;17.10;99.80;;;;;;5075840;28;20204;-76
2022/03/11 12:46:26;;;;;;;9.83;4.00;;;17.00;99.60;;;;;;5075958;28;20272;-77
2022/03/11 12:48:53;;;;;;;4.10;3.70;;;17.10;99.90;;;;;;5076456;28;20225;-76
2022/03/11 12:51:24;;;;;;;6.70;3.87;;;17.20;99.70;;;;;;5074859;28;20675;-78
2022/03/11 12:53:53;;;;;;;4.60;4.20;;;17.20;99.30;;;;;;5075058;28;20217;-78
2022/03/11 12:56:22;;;;;;;4.47;3.67;;;17.20;99.40;;;;;;5074269;28;20202;-77